Time;durP1;ratioP1;P1;durP2;ratioP2;P2;SDS_P1;SDS_P2;PMS_P1;PMS_P2;Temp;Humidity;BMP_temperature;BMP_pressure;BME280_temperature;BME280_humidity;BME280_pressure;Samples;Min_cycle;Max_cycle;Signal;HPM_P1;HPM_P2
2022/11/10 00:01:47;;;;;;;2.53;2.08;;;;;;;;;;5092237;28;20034;-75
2022/11/10 00:04:13;;;;;;;2.53;2.33;;;;;;;;;;5092141;28;20066;-74
2022/11/10 00:06:39;;;;;;;2.42;2.13;;;;;;;;;;5092081;28;20064;-75
2022/11/10 00:09:05;;;;;;;2.35;2.15;;;;;;;;;;5092055;28;20035;-75
2022/11/10 00:11:31;;;;;;;3.13;2.33;;;;;;;;;;5091898;28;20089;-75
2022/11/10 00:19:24;;;;;;;2.40;2.10;;;;;;;;;;5091929;28;20120;-75
2022/11/10 00:21:49;;;;;;;2.17;2.00;;;;;;;;;;5091980;28;20070;-74
2022/11/10 00:24:15;;;;;;;2.42;2.22;;;;;;;;;;5091833;28;20604;-74
2022/11/10 00:26:40;;;;;;;2.05;1.67;;;;;;;;;;5073693;28;20124;-75
2022/11/10 00:29:05;;;;;;;1.65;1.55;;;;;;;;;;5091841;28;20036;-75
2022/11/10 00:31:31;;;;;;;1.48;1.38;;;;;;;;;;5091735;28;20123;-74
2022/11/10 00:33:56;;;;;;;2.38;2.17;;;;;;;;;;5091579;28;20474;-76
2022/11/10 00:36:22;;;;;;;2.40;2.20;;;;;;;;;;5091627;28;20100;-76
2022/11/10 00:38:51;;;;;;;2.00;1.77;;;;;;;;;;5091123;28;20054;-76
2022/11/10 00:41:16;;;;;;;1.73;1.42;;;;;;;;;;5091431;28;20039;-76
2022/11/10 00:43:41;;;;;;;0.85;0.70;;;;;;;;;;5090451;28;20414;-76
2022/11/10 00:46:07;;;;;;;2.05;1.92;;;;;;;;;;5091331;28;20077;-76
2022/11/10 00:48:32;;;;;;;2.42;2.22;;;;;;;;;;5091532;28;20040;-76
2022/11/10 00:50:57;;;;;;;2.45;2.28;;;;;;;;;;5091465;28;20032;-75
2022/11/10 00:53:23;;;;;;;2.25;1.98;;;;;;;;;;5074616;28;20081;-76
2022/11/10 00:55:48;;;;;;;2.53;2.22;;;;;;;;;;5093596;28;20062;-76
2022/11/10 00:58:14;;;;;;;2.10;2.00;;;;;;;;;;5093236;28;20033;-76
2022/11/10 01:00:40;;;;;;;1.23;1.13;;;;;;;;;;5093025;28;20033;-76
2022/11/10 01:03:05;;;;;;;2.10;2.00;;;;;;;;;;5092977;28;20558;-76
2022/11/10 01:05:34;;;;;;;2.20;2.00;;;;;;;;;;5092534;28;20067;-76
2022/11/10 01:07:59;;;;;;;2.08;1.15;;;;;;;;;;5092842;28;20699;-76
2022/11/10 01:10:25;;;;;;;2.13;1.92;;;;;;;;;;5093145;28;20141;-74
2022/11/10 01:12:51;;;;;;;1.10;1.00;;;;;;;;;;5092813;28;20437;-75
2022/11/10 01:15:16;;;;;;;2.35;2.03;;;;;;;;;;5092769;28;20066;-74
2022/11/10 01:17:42;;;;;;;2.22;2.13;;;;;;;;;;5092586;28;20105;-74
2022/11/10 01:20:08;;;;;;;2.05;1.90;;;;;;;;;;5093014;28;20036;-74
2022/11/10 01:22:33;;;;;;;3.17;2.95;;;;;;;;;;5092977;28;20036;-74
2022/11/10 01:24:59;;;;;;;1.42;1.25;;;;;;;;;;5093180;28;20390;-75
2022/11/10 01:27:24;;;;;;;2.33;2.13;;;;;;;;;;5092416;28;20039;-74
2022/11/10 01:29:49;;;;;;;2.22;2.05;;;;;;;;;;5092680;28;20486;-75
2022/11/10 01:32:15;;;;;;;2.13;2.03;;;;;;;;;;5092708;28;20486;-74
2022/11/10 01:34:40;;;;;;;1.38;1.25;;;;;;;;;;5092818;28;20431;-74
2022/11/10 01:37:05;;;;;;;1.90;1.80;;;;;;;;;;5092194;28;20027;-75
2022/11/10 01:39:31;;;;;;;2.10;1.90;;;;;;;;;;5092240;28;20043;-75
2022/11/10 01:41:56;;;;;;;1.55;1.45;;;;;;;;;;5074518;28;20479;-75
2022/11/10 01:44:23;;;;;;;1.80;1.70;;;;;;;;;;5092044;28;20040;-74
2022/11/10 01:46:48;;;;;;;2.13;1.85;;;;;;;;;;5092407;28;20036;-75
2022/11/10 01:49:16;;;;;;;1.27;1.20;;;;;;;;;;5092519;28;20093;-75
2022/11/10 01:51:45;;;;;;;2.05;1.95;;;;;;;;;;5091576;28;20032;-75
2022/11/10 01:54:13;;;;;;;1.83;1.73;;;;;;;;;;5090784;28;20127;-75
2022/11/10 01:56:43;;;;;;;1.35;1.25;;;;;;;;;;5094637;28;20508;-75
2022/11/10 01:59:11;;;;;;;2.03;1.92;;;;;;;;;;5094515;28;20557;-75
2022/11/10 02:01:37;;;;;;;1.08;1.08;;;;;;;;;;5094339;28;20035;-75
2022/11/10 02:04:04;;;;;;;1.75;1.63;;;;;;;;;;5094241;28;20074;-75
2022/11/10 02:06:35;;;;;;;1.90;1.80;;;;;;;;;;5094344;28;20047;-75
2022/11/10 02:09:00;;;;;;;1.20;1.10;;;;;;;;;;5094523;28;20379;-74
2022/11/10 02:11:26;;;;;;;1.80;1.70;;;;;;;;;;5094230;28;20044;-75
2022/11/10 02:13:52;;;;;;;2.22;2.13;;;;;;;;;;5094347;28;20113;-76
2022/11/10 02:16:18;;;;;;;6.07;1.63;;;;;;;;;;5094347;28;20086;-74
2022/11/10 02:18:43;;;;;;;1.75;1.65;;;;;;;;;;5076038;28;20039;-74
2022/11/10 02:21:09;;;;;;;1.60;1.50;;;;;;;;;;5094313;28;20096;-74
2022/11/10 02:23:34;;;;;;;1.55;1.45;;;;;;;;;;5094170;28;20123;-74
2022/11/10 02:26:01;;;;;;;1.70;1.60;;;;;;;;;;5110237;28;20042;-75
2022/11/10 02:28:26;;;;;;;1.75;1.65;;;;;;;;;;5114502;28;20054;-75
2022/11/10 02:30:52;;;;;;;1.77;1.67;;;;;;;;;;5114568;28;20031;-74
2022/11/10 02:33:18;;;;;;;1.38;1.23;;;;;;;;;;5114342;28;20085;-75
2022/11/10 02:35:44;;;;;;;1.73;1.63;;;;;;;;;;5114355;28;20032;-74
2022/11/10 02:38:09;;;;;;;2.13;1.92;;;;;;;;;;5099317;28;20040;-75
2022/11/10 02:40:35;;;;;;;1.85;1.75;;;;;;;;;;5093695;28;20505;-74
2022/11/10 02:43:01;;;;;;;1.45;1.30;;;;;;;;;;5093805;28;20058;-74
2022/11/10 02:45:26;;;;;;;1.30;0.80;;;;;;;;;;5093832;28;20819;-74
2022/11/10 02:47:52;;;;;;;2.10;2.00;;;;;;;;;;5093543;28;20075;-77
2022/11/10 02:50:17;;;;;;;1.83;1.70;;;;;;;;;;5093712;28;20028;-77
2022/11/10 02:52:42;;;;;;;1.88;1.73;;;;;;;;;;5076702;28;20085;-77
2022/11/10 02:55:08;;;;;;;1.83;1.73;;;;;;;;;;5096034;28;20470;-77
2022/11/10 02:57:33;;;;;;;0.70;0.70;;;;;;;;;;5095389;28;20453;-76
2022/11/10 02:59:59;;;;;;;1.50;1.27;;;;;;;;;;5095276;28;20070;-76
2022/11/10 03:02:24;;;;;;;1.92;1.83;;;;;;;;;;5095335;28;20038;-77
2022/11/10 03:04:49;;;;;;;2.03;1.92;;;;;;;;;;5084628;28;20055;-77
2022/11/10 03:07:15;;;;;;;1.80;1.70;;;;;;;;;;5092903;28;20058;-76
2022/11/10 03:09:40;;;;;;;0.93;0.88;;;;;;;;;;5093701;28;20031;-76
2022/11/10 03:12:06;;;;;;;1.88;1.77;;;;;;;;;;5093885;28;20093;-76
2022/11/10 03:14:31;;;;;;;1.27;1.17;;;;;;;;;;5094398;28;20035;-76
2022/11/10 03:16:56;;;;;;;1.60;1.52;;;;;;;;;;5093983;28;20487;-76
2022/11/10 03:19:22;;;;;;;0.70;0.70;;;;;;;;;;5090436;28;20446;-77
2022/11/10 03:21:47;;;;;;;1.77;1.67;;;;;;;;;;5080508;28;20070;-76
2022/11/10 03:24:12;;;;;;;1.63;1.52;;;;;;;;;;5094040;28;20064;-76
2022/11/10 03:26:38;;;;;;;0.95;0.95;;;;;;;;;;5093633;28;20032;-76
2022/11/10 03:29:03;;;;;;;1.80;1.70;;;;;;;;;;5093912;28;20032;-76
2022/11/10 03:31:28;;;;;;;1.30;1.20;;;;;;;;;;5093813;28;20031;-76
2022/11/10 03:33:54;;;;;;;1.58;1.48;;;;;;;;;;5093704;28;20032;-77
2022/11/10 03:36:19;;;;;;;0.75;0.75;;;;;;;;;;5094076;28;20413;-76
2022/11/10 03:38:45;;;;;;;1.60;1.50;;;;;;;;;;5093434;28;20499;-76
2022/11/10 03:41:10;;;;;;;1.00;1.00;;;;;;;;;;5093229;28;20024;-77
2022/11/10 03:43:35;;;;;;;0.93;0.93;;;;;;;;;;5093506;28;20047;-76
2022/11/10 03:46:01;;;;;;;0.90;0.90;;;;;;;;;;5093589;28;20408;-77
2022/11/10 03:48:26;;;;;;;1.30;1.23;;;;;;;;;;5093283;28;20490;-77
2022/11/10 03:50:51;;;;;;;1.67;1.58;;;;;;;;;;5093600;28;20039;-78
2022/11/10 03:53:17;;;;;;;15.43;3.35;;;;;;;;;;5091817;28;20486;-76
2022/11/10 03:55:42;;;;;;;6.70;2.20;;;;;;;;;;5091519;28;20036;-81
2022/11/10 03:58:07;;;;;;;3.20;1.63;;;;;;;;;;5091614;28;20027;-76
2022/11/10 04:00:33;;;;;;;7.72;2.63;;;;;;;;;;5091704;28;20032;-77
2022/11/10 04:02:58;;;;;;;3.22;1.08;;;;;;;;;;5091119;28;20367;-78
2022/11/10 04:10:55;;;;;;;2.90;1.80;;;;;;;;;;5091488;28;20039;-79
2022/11/10 04:16:05;;;;;;;2.30;1.60;;;;;;;;;;5091746;28;20122;-77
2022/11/10 04:18:30;;;;;;;2.90;1.35;;;;;;;;;;5090966;28;20032;-77
2022/11/10 04:20:57;;;;;;;4.40;2.40;;;;;;;;;;5091244;28;20038;-77
2022/11/10 04:23:26;;;;;;;4.35;1.38;;;;;;;;;;5090924;28;20462;-77
2022/11/10 04:28:39;;;;;;;;;;;;;;;;;;5088904;28;20050;-77
2022/11/10 04:31:07;;;;;;;7.35;1.58;;;;;;;;;;5089769;28;20002;-78
2022/11/10 04:33:32;;;;;;;3.13;1.50;;;;;;;;;;5072157;28;20418;-77
2022/11/10 04:35:58;;;;;;;2.78;1.58;;;;;;;;;;5090846;28;20031;-78
2022/11/10 04:38:23;;;;;;;3.13;1.83;;;;;;;;;;5090706;28;20068;-78
2022/11/10 04:40:48;;;;;;;2.35;1.42;;;;;;;;;;5090361;28;20039;-77
2022/11/10 04:43:14;;;;;;;1.95;0.75;;;;;;;;;;5090754;28;20469;-77
2022/11/10 04:45:39;;;;;;;2.10;1.17;;;;;;;;;;5090747;28;20555;-78
2022/11/10 04:48:05;;;;;;;2.10;1.55;;;;;;;;;;5090821;28;20794;-77
2022/11/10 04:50:30;;;;;;;2.20;1.25;;;;;;;;;;5090870;28;20028;-77
2022/11/10 04:52:55;;;;;;;8.30;0.93;;;;;;;;;;5091958;28;20035;-79
2022/11/10 04:55:21;;;;;;;2.80;1.20;;;;;;;;;;5092097;28;20032;-80
2022/11/10 04:57:46;;;;;;;6.68;2.40;;;;;;;;;;5091602;28;20028;-77
2022/11/10 05:00:12;;;;;;;2.40;1.23;;;;;;;;;;5092397;28;20042;-78
2022/11/10 05:02:37;;;;;;;1.10;1.02;;;;;;;;;;5092020;28;20036;-77
2022/11/10 05:05:02;;;;;;;1.17;1.00;;;;;;;;;;5091204;28;20063;-78
2022/11/10 05:07:28;;;;;;;1.05;0.93;;;;;;;;;;5092150;28;20032;-77
2022/11/10 05:09:53;;;;;;;1.58;1.40;;;;;;;;;;5073816;28;20028;-77
2022/11/10 05:12:19;;;;;;;0.60;0.57;;;;;;;;;;5091978;28;20372;-77
2022/11/10 05:14:44;;;;;;;3.45;0.93;;;;;;;;;;5092221;28;20028;-77
2022/11/10 05:17:09;;;;;;;1.38;1.17;;;;;;;;;;5091633;28;20084;-75
2022/11/10 05:19:35;;;;;;;1.52;1.42;;;;;;;;;;5091886;28;20028;-75
2022/11/10 05:22:00;;;;;;;1.70;1.60;;;;;;;;;;5091973;28;20074;-75
2022/11/10 05:24:25;;;;;;;1.85;1.08;;;;;;;;;;5091653;28;20028;-75
2022/11/10 05:26:51;;;;;;;1.55;1.45;;;;;;;;;;5091846;28;20028;-75
2022/11/10 05:29:16;;;;;;;2.10;1.45;;;;;;;;;;5091516;28;20035;-75
2022/11/10 05:31:41;;;;;;;2.40;1.35;;;;;;;;;;5091347;28;20031;-75
2022/11/10 05:34:07;;;;;;;0.93;0.80;;;;;;;;;;5091841;28;20036;-76
2022/11/10 05:36:32;;;;;;;0.85;0.80;;;;;;;;;;5091762;28;20122;-75
2022/11/10 05:38:57;;;;;;;1.20;1.10;;;;;;;;;;5091508;28;20036;-76
2022/11/10 05:41:23;;;;;;;1.65;1.55;;;;;;;;;;5091514;28;20040;-76
2022/11/10 05:43:48;;;;;;;2.55;1.88;;;;;;;;;;5091653;28;20036;-76
2022/11/10 05:46:13;;;;;;;0.70;0.70;;;;;;;;;;5091353;28;20048;-77
2022/11/10 05:48:39;;;;;;;0.68;0.68;;;;;;;;;;5091692;28;20032;-75
2022/11/10 05:51:05;;;;;;;1.73;1.63;;;;;;;;;;5073713;28;20085;-75
2022/11/10 05:53:31;;;;;;;1.35;1.35;;;;;;;;;;5089383;28;20165;-76
2022/11/10 05:55:56;;;;;;;2.08;1.00;;;;;;;;;;5090151;28;20063;-75
2022/11/10 05:58:21;;;;;;;1.17;1.17;;;;;;;;;;5090236;28;20847;-76
2022/11/10 06:00:47;;;;;;;1.08;0.60;;;;;;;;;;5089611;28;20386;-77
2022/11/10 06:03:13;;;;;;;0.88;0.88;;;;;;;;;;5089605;28;20043;-77
2022/11/10 06:05:39;;;;;;;0.88;0.77;;;;;;;;;;5089751;28;20125;-78
2022/11/10 06:08:05;;;;;;;1.77;1.67;;;;;;;;;;5089506;28;20040;-77
2022/11/10 06:10:30;;;;;;;0.60;0.60;;;;;;;;;;5089993;28;20474;-77
2022/11/10 06:13:34;;;;;;;2.63;1.10;;;;;;;;;;5090461;28;20547;-77
2022/11/10 06:15:59;;;;;;;2.20;1.75;;;;;;;;;;5064344;28;20089;-78
2022/11/10 06:18:24;;;;;;;1.90;1.75;;;;;;;;;;5089793;28;20501;-77
2022/11/10 06:20:50;;;;;;;1.75;0.95;;;;;;;;;;5089669;28;20413;-77
2022/11/10 06:23:15;;;;;;;2.63;2.15;;;;;;;;;;5089453;28;20115;-77
2022/11/10 06:25:41;;;;;;;1.92;1.83;;;;;;;;;;5089833;28;20056;-76
2022/11/10 06:28:07;;;;;;;1.30;1.20;;;;;;;;;;5089719;28;20043;-77
2022/11/10 06:30:34;;;;;;;1.55;1.45;;;;;;;;;;5089451;28;20036;-76
2022/11/10 06:32:59;;;;;;;1.73;1.63;;;;;;;;;;5089636;28;20040;-75
2022/11/10 06:35:25;;;;;;;2.42;1.80;;;;;;;;;;5089485;28;20089;-76
2022/11/10 06:37:56;;;;;;;1.52;1.42;;;;;;;;;;5089028;28;20028;-76
2022/11/10 06:40:21;;;;;;;2.13;1.98;;;;;;;;;;5089816;28;20032;-77
2022/11/10 06:42:47;;;;;;;1.75;1.65;;;;;;;;;;5092040;28;20555;-77
2022/11/10 06:45:13;;;;;;;1.45;1.35;;;;;;;;;;5092666;28;20042;-78
2022/11/10 06:47:38;;;;;;;2.70;1.67;;;;;;;;;;5092655;28;20070;-76
2022/11/10 06:50:03;;;;;;;2.80;2.50;;;;;;;;;;5093129;28;20032;-78
2022/11/10 06:52:30;;;;;;;3.13;2.05;;;;;;;;;;5075605;28;20526;-78
2022/11/10 06:54:55;;;;;;;2.15;2.05;;;;;;;;;;5094662;28;20039;-78
2022/11/10 06:57:21;;;;;;;8.32;3.05;;;;;;;;;;5094703;28;20032;-78
2022/11/10 06:59:46;;;;;;;5.30;2.47;;;;;;;;;;5093989;28;20047;-78
2022/11/10 07:02:15;;;;;;;4.20;2.53;;;;;;;;;;5094849;28;20079;-79
2022/11/10 07:04:41;;;;;;;2.92;2.33;;;;;;;;;;5094173;28;20139;-78
2022/11/10 07:07:07;;;;;;;2.92;1.40;;;;;;;;;;5094000;28;20391;-78
2022/11/10 07:09:33;;;;;;;5.07;2.70;;;;;;;;;;5094443;28;20051;-79
2022/11/10 07:11:59;;;;;;;2.50;1.52;;;;;;;;;;5094539;28;20434;-78
2022/11/10 07:14:24;;;;;;;2.35;2.15;;;;;;;;;;5094501;28;20046;-79
2022/11/10 07:16:50;;;;;;;3.95;2.40;;;;;;;;;;5094133;28;20032;-79
2022/11/10 07:19:15;;;;;;;2.78;1.95;;;;;;;;;;5094395;28;20031;-78
2022/11/10 07:21:41;;;;;;;3.10;1.70;;;;;;;;;;5094060;28;20457;-79
2022/11/10 07:24:06;;;;;;;2.10;1.80;;;;;;;;;;5092282;28;20040;-77
2022/11/10 07:26:31;;;;;;;2.05;1.88;;;;;;;;;;5092456;28;20032;-77
2022/11/10 07:28:57;;;;;;;3.20;2.10;;;;;;;;;;5094017;28;20039;-78
2022/11/10 07:31:22;;;;;;;3.15;2.35;;;;;;;;;;5093830;28;20071;-79
2022/11/10 07:33:48;;;;;;;4.57;2.58;;;;;;;;;;5094236;28;20368;-77
2022/11/10 07:36:13;;;;;;;2.95;1.70;;;;;;;;;;5094122;28;20028;-78
2022/11/10 07:38:38;;;;;;;2.10;1.90;;;;;;;;;;5093423;28;20036;-78
2022/11/10 07:41:04;;;;;;;2.30;1.65;;;;;;;;;;5093472;28;20486;-78
2022/11/10 07:43:29;;;;;;;2.40;2.20;;;;;;;;;;5093804;28;20046;-79
2022/11/10 07:45:55;;;;;;;1.45;1.25;;;;;;;;;;5093384;28;20395;-78
2022/11/10 07:48:20;;;;;;;1.42;1.17;;;;;;;;;;5093912;28;20439;-79
2022/11/10 07:50:45;;;;;;;2.78;2.50;;;;;;;;;;5093951;28;20477;-78
2022/11/10 07:53:15;;;;;;;1.73;1.63;;;;;;;;;;5091168;28;20092;-79
2022/11/10 07:55:41;;;;;;;2.95;2.65;;;;;;;;;;5091970;28;20082;-79
2022/11/10 07:58:07;;;;;;;1.40;1.20;;;;;;;;;;5091949;28;20393;-79
2022/11/10 08:00:33;;;;;;;2.00;1.60;;;;;;;;;;5091744;28;20054;-80
2022/11/10 08:03:05;;;;;;;1.42;1.33;;;;;;;;;;5092043;28;20383;-81
2022/11/10 08:05:33;;;;;;;2.35;2.15;;;;;;;;;;5092294;28;20162;-78
2022/11/10 08:07:59;;;;;;;3.47;2.47;;;;;;;;;;5091852;28;20036;-79
2022/11/10 08:10:24;;;;;;;1.45;1.30;;;;;;;;;;5091961;28;20113;-80
2022/11/10 08:12:57;;;;;;;1.83;1.48;;;;;;;;;;5091561;28;20059;-79
2022/11/10 08:15:23;;;;;;;2.17;2.03;;;;;;;;;;5091215;28;20040;-79
2022/11/10 08:17:48;;;;;;;2.03;1.83;;;;;;;;;;5090839;28;20032;-79
2022/11/10 08:20:14;;;;;;;1.30;1.17;;;;;;;;;;5091636;28;20402;-79
2022/11/10 08:22:39;;;;;;;2.45;2.22;;;;;;;;;;5091018;28;20040;-77
2022/11/10 08:25:05;;;;;;;1.38;1.27;;;;;;;;;;5091232;28;20036;-77
2022/11/10 08:27:30;;;;;;;1.70;1.30;;;;;;;;;;5091111;28;20407;-77
2022/11/10 08:29:55;;;;;;;2.15;1.58;;;;;;;;;;5091107;28;20036;-78
2022/11/10 08:32:21;;;;;;;1.83;1.73;;;;;;;;;;5091335;28;20035;-78
2022/11/10 08:34:46;;;;;;;2.25;1.98;;;;;;;;;;5091435;28;20140;-78
2022/11/10 08:37:11;;;;;;;1.70;1.45;;;;;;;;;;5090336;28;20073;-77
2022/11/10 08:39:37;;;;;;;2.20;2.00;;;;;;;;;;5091181;28;20039;-78
2022/11/10 08:42:02;;;;;;;2.70;2.00;;;;;;;;;;5090988;28;20126;-78
2022/11/10 08:44:28;;;;;;;1.45;1.35;;;;;;;;;;5091086;28;20097;-78
2022/11/10 08:46:53;;;;;;;1.58;1.38;;;;;;;;;;5090736;28;20032;-78
2022/11/10 08:49:18;;;;;;;2.67;2.40;;;;;;;;;;5090989;28;20032;-78
2022/11/10 08:51:44;;;;;;;3.30;1.42;;;;;;;;;;5090984;28;20432;-78
2022/11/10 08:54:09;;;;;;;2.33;2.17;;;;;;;;;;5074379;28;20070;-78
2022/11/10 08:56:35;;;;;;;1.80;1.30;;;;;;;;;;5092591;28;20424;-79
2022/11/10 08:59:00;;;;;;;2.75;2.35;;;;;;;;;;5092207;28;20059;-78
2022/11/10 09:01:25;;;;;;;1.65;1.40;;;;;;;;;;5092533;28;20735;-78
2022/11/10 09:03:51;;;;;;;2.47;2.28;;;;;;;;;;5090962;28;20123;-78
2022/11/10 09:06:16;;;;;;;2.45;2.25;;;;;;;;;;5090638;28;20059;-78
2022/11/10 09:08:41;;;;;;;2.08;1.80;;;;;;;;;;5092514;28;20072;-78
2022/11/10 09:11:07;;;;;;;2.05;1.52;;;;;;;;;;5092332;28;20428;-79
2022/11/10 09:13:32;;;;;;;2.90;2.70;;;;;;;;;;5091982;28;20044;-78
2022/11/10 09:16:01;;;;;;;2.50;2.20;;;;;;;;;;5092496;28;20131;-78
2022/11/10 09:18:27;;;;;;;2.33;2.13;;;;;;;;;;5092257;28;20047;-79
2022/11/10 09:20:53;;;;;;;2.15;1.95;;;;;;;;;;5091561;28;20032;-78
2022/11/10 09:23:18;;;;;;;2.88;2.58;;;;;;;;;;5092235;28;20039;-78
2022/11/10 09:25:48;;;;;;;1.88;1.40;;;;;;;;;;5092006;28;20402;-78
2022/11/10 09:28:14;;;;;;;1.58;1.30;;;;;;;;;;5073755;28;20043;-77
2022/11/10 09:30:40;;;;;;;2.35;1.55;;;;;;;;;;5092105;28;20047;-77
2022/11/10 09:33:05;;;;;;;2.38;2.10;;;;;;;;;;5092160;28;20111;-78
2022/11/10 09:35:31;;;;;;;1.77;1.67;;;;;;;;;;5091386;28;20561;-78
2022/11/10 09:37:56;;;;;;;1.67;1.58;;;;;;;;;;5091778;28;20043;-77
2022/11/10 09:40:40;;;;;;;2.58;2.38;;;;;;;;;;5092055;28;20042;-77
2022/11/10 09:43:11;;;;;;;1.77;1.48;;;;;;;;;;5091830;28;20043;-79
2022/11/10 09:45:40;;;;;;;2.58;2.38;;;;;;;;;;5091842;28;20039;-79
2022/11/10 09:48:08;;;;;;;1.85;1.67;;;;;;;;;;5092066;28;20505;-79
2022/11/10 09:50:33;;;;;;;1.60;0.90;;;;;;;;;;5073543;28;20383;-79
2022/11/10 09:52:59;;;;;;;2.70;2.50;;;;;;;;;;5090836;28;20038;-79
2022/11/10 09:55:39;;;;;;;2.80;2.58;;;;;;;;;;5090134;28;20036;-79
2022/11/10 09:58:05;;;;;;;2.45;1.98;;;;;;;;;;5089759;28;20028;-79
2022/11/10 10:00:32;;;;;;;2.40;2.25;;;;;;;;;;5090304;28;20046;-79
2022/11/10 10:03:00;;;;;;;2.33;2.13;;;;;;;;;;5089715;28;20115;-79
2022/11/10 10:05:25;;;;;;;2.58;2.35;;;;;;;;;;5089153;28;20090;-79
2022/11/10 10:08:04;;;;;;;2.10;1.90;;;;;;;;;;5089926;28;20044;-79
2022/11/10 10:10:33;;;;;;;2.10;1.77;;;;;;;;;;5071867;28;20042;-79
2022/11/10 10:13:17;;;;;;;2.63;2.33;;;;;;;;;;5089562;28;20032;-79
2022/11/10 10:15:46;;;;;;;2.47;2.28;;;;;;;;;;5072850;28;20086;-79
2022/11/10 10:18:11;;;;;;;3.45;1.90;;;;;;;;;;5094003;28;20039;-79
2022/11/10 10:20:43;;;;;;;2.75;2.17;;;;;;;;;;5093652;28;20813;-79
2022/11/10 10:23:24;;;;;;;2.40;2.15;;;;;;;;;;5075559;28;20038;-79
2022/11/10 10:25:51;;;;;;;2.83;2.05;;;;;;;;;;5093446;28;20036;-79
2022/11/10 10:28:26;;;;;;;2.58;2.10;;;;;;;;;;5093180;28;20040;-79
2022/11/10 10:30:52;;;;;;;3.10;2.38;;;;;;;;;;5093578;28;20036;-79
2022/11/10 10:33:19;;;;;;;2.40;2.20;;;;;;;;;;5093286;28;20077;-79
2022/11/10 10:35:46;;;;;;;3.25;2.38;;;;;;;;;;5092907;28;20148;-79
2022/11/10 10:38:24;;;;;;;2.95;1.83;;;;;;;;;;5093139;28;20086;-79
2022/11/10 10:40:50;;;;;;;2.33;2.13;;;;;;;;;;5093337;28;20055;-79
2022/11/10 10:43:16;;;;;;;2.40;2.20;;;;;;;;;;5092809;28;20031;-79
2022/11/10 10:45:41;;;;;;;2.17;2.03;;;;;;;;;;5093039;28;20034;-79
2022/11/10 10:48:23;;;;;;;2.50;2.30;;;;;;;;;;5075116;28;20122;-79
2022/11/10 10:50:49;;;;;;;;;;;;;;;;;;5075134;28;20032;-79
2022/11/10 10:53:18;;;;;;;1.50;1.33;;;;;;;;;;5094351;28;20301;-79
2022/11/10 10:56:00;;;;;;;2.35;2.13;;;;;;;;;;5094519;28;20094;-79
2022/11/10 10:58:28;;;;;;;2.65;1.40;;;;;;;;;;5075984;28;20375;-79
2022/11/10 11:01:13;;;;;;;2.50;2.30;;;;;;;;;;5094467;28;20109;-79
2022/11/10 11:03:45;;;;;;;2.53;2.30;;;;;;;;;;5075851;28;20482;-80
2022/11/10 11:06:13;;;;;;;2.25;2.03;;;;;;;;;;5075915;28;20036;-79
2022/11/10 11:08:43;;;;;;;2.50;2.30;;;;;;;;;;5094529;28;20040;-80
2022/11/10 11:11:09;;;;;;;2.55;2.35;;;;;;;;;;5094337;28;20028;-79
2022/11/10 11:13:35;;;;;;;1.85;1.48;;;;;;;;;;5093920;28;20394;-80
2022/11/10 11:16:06;;;;;;;2.33;1.58;;;;;;;;;;5094261;28;20398;-79
2022/11/10 11:18:32;;;;;;;2.50;2.00;;;;;;;;;;5094327;28;20028;-81
2022/11/10 11:21:10;;;;;;;1.48;1.30;;;;;;;;;;5093927;28;20448;-79
2022/11/10 11:23:53;;;;;;;1.85;1.73;;;;;;;;;;5094050;28;20038;-79
2022/11/10 11:26:24;;;;;;;1.77;1.63;;;;;;;;;;5075579;28;20024;-80
2022/11/10 11:28:58;;;;;;;1.85;1.67;;;;;;;;;;5093401;28;20557;-79
2022/11/10 11:31:30;;;;;;;2.33;2.08;;;;;;;;;;5093804;28;20040;-79
2022/11/10 11:33:55;;;;;;;2.10;1.92;;;;;;;;;;5093553;28;20039;-80
2022/11/10 11:36:41;;;;;;;1.85;1.67;;;;;;;;;;5093951;28;20028;-79
2022/11/10 11:39:12;;;;;;;2.47;2.28;;;;;;;;;;5059515;28;20041;-80
2022/11/10 11:41:50;;;;;;;2.55;1.95;;;;;;;;;;5073195;28;20074;-79
2022/11/10 11:44:36;;;;;;;2.97;2.75;;;;;;;;;;5073733;28;20036;-80
2022/11/10 11:47:05;;;;;;;2.80;2.60;;;;;;;;;;5062796;28;20479;-79
2022/11/10 11:49:49;;;;;;;2.88;2.63;;;;;;;;;;5072973;28;20059;-80
2022/11/10 11:52:18;;;;;;;2.97;1.80;;;;;;;;;;5072791;28;20039;-79
2022/11/10 11:54:58;;;;;;;2.67;2.47;;;;;;;;;;5071878;28;20036;-80
2022/11/10 11:57:29;;;;;;;1.95;1.83;;;;;;;;;;5053331;28;20028;-80
2022/11/10 12:00:01;;;;;;;2.47;2.28;;;;;;;;;;5091638;28;20036;-79
2022/11/10 12:03:02;;;;;;;2.22;1.50;;;;;;;;;;5092099;28;20043;-79
2022/11/10 12:05:35;;;;;;;3.15;2.20;;;;;;;;;;4992239;28;20065;-80
2022/11/10 12:08:00;;;;;;;2.10;1.67;;;;;;;;;;5079011;28;20134;-79
2022/11/10 12:10:31;;;;;;;2.55;2.08;;;;;;;;;;5092104;28;20115;-79
2022/11/10 12:13:06;;;;;;;2.00;1.80;;;;;;;;;;5073641;28;20046;-79
2022/11/10 12:15:32;;;;;;;3.53;1.80;;;;;;;;;;5090185;28;20039;-80
2022/11/10 12:18:09;;;;;;;1.85;1.40;;;;;;;;;;5071830;28;20394;-79
2022/11/10 12:20:56;;;;;;;2.00;1.90;;;;;;;;;;5091576;28;20035;-79
2022/11/10 12:23:22;;;;;;;2.15;1.80;;;;;;;;;;5072853;28;20024;-79
2022/11/10 12:25:59;;;;;;;2.38;2.10;;;;;;;;;;5090772;28;20118;-79
2022/11/10 12:28:43;;;;;;;2.35;1.90;;;;;;;;;;5091502;28;20046;-79
2022/11/10 12:31:12;;;;;;;1.98;1.67;;;;;;;;;;5091276;28;20036;-79
2022/11/10 12:33:44;;;;;;;1.77;1.42;;;;;;;;;;5072500;28;20465;-79
2022/11/10 12:36:11;;;;;;;2.60;2.20;;;;;;;;;;5072900;28;20043;-79
2022/11/10 12:38:37;;;;;;;2.53;2.00;;;;;;;;;;5090715;28;20040;-79
2022/11/10 12:41:11;;;;;;;2.08;1.75;;;;;;;;;;5072364;28;20032;-79
2022/11/10 12:43:45;;;;;;;2.15;1.95;;;;;;;;;;5090866;28;20119;-79
2022/11/10 12:46:11;;;;;;;2.75;2.55;;;;;;;;;;5091068;28;20074;-79
2022/11/10 12:48:46;;;;;;;2.50;1.70;;;;;;;;;;5072381;28;20106;-79
2022/11/10 12:51:16;;;;;;;2.15;1.77;;;;;;;;;;5090828;28;20040;-79
2022/11/10 12:53:42;;;;;;;2.78;1.92;;;;;;;;;;5092254;28;20028;-79
2022/11/10 12:56:10;;;;;;;3.63;2.15;;;;;;;;;;5092144;28;20502;-78
2022/11/10 12:58:36;;;;;;;2.88;2.35;;;;;;;;;;5092479;28;20111;-78
2022/11/10 13:01:03;;;;;;;2.65;2.45;;;;;;;;;;5092510;28;20081;-80
2022/11/10 13:03:29;;;;;;;2.63;2.00;;;;;;;;;;5091884;28;20036;-79
2022/11/10 13:06:01;;;;;;;2.30;1.88;;;;;;;;;;5091938;28;20078;-80
2022/11/10 13:08:43;;;;;;;2.40;2.20;;;;;;;;;;5092274;28;20494;-80
2022/11/10 13:11:10;;;;;;;2.03;1.77;;;;;;;;;;5074131;28;20055;-79
2022/11/10 13:13:45;;;;;;;1.98;1.80;;;;;;;;;;5089973;28;20085;-80
2022/11/10 13:16:31;;;;;;;1.65;1.20;;;;;;;;;;5071893;28;20445;-79
2022/11/10 13:18:56;;;;;;;2.72;1.80;;;;;;;;;;5071874;28;20406;-80
2022/11/10 13:21:40;;;;;;;2.47;2.25;;;;;;;;;;5071757;28;20036;-79
2022/11/10 13:24:18;;;;;;;3.15;2.22;;;;;;;;;;5071870;28;20516;-79
2022/11/10 13:26:43;;;;;;;1.75;1.63;;;;;;;;;;5071459;28;20036;-79
2022/11/10 13:29:30;;;;;;;2.50;2.30;;;;;;;;;;5071833;28;20040;-79
2022/11/10 13:31:57;;;;;;;2.85;2.65;;;;;;;;;;5071640;28;20028;-79
2022/11/10 13:34:30;;;;;;;1.92;1.65;;;;;;;;;;5071596;28;20032;-79
2022/11/10 13:36:55;;;;;;;2.53;2.33;;;;;;;;;;5075410;28;20504;-79
2022/11/10 13:39:24;;;;;;;1.90;1.77;;;;;;;;;;5091721;28;20115;-79
2022/11/10 13:41:53;;;;;;;2.40;2.20;;;;;;;;;;5091749;28;20028;-78
2022/11/10 13:44:28;;;;;;;2.75;2.53;;;;;;;;;;5091679;28;20038;-79
2022/11/10 13:47:00;;;;;;;2.67;2.38;;;;;;;;;;5073158;28;20089;-79
2022/11/10 13:49:48;;;;;;;2.72;2.53;;;;;;;;;;5091752;28;20028;-78
2022/11/10 13:52:19;;;;;;;2.47;1.90;;;;;;;;;;5083833;28;20044;-79
2022/11/10 13:54:47;;;;;;;2.80;2.60;;;;;;;;;;5093996;28;20595;-78
2022/11/10 13:57:30;;;;;;;2.45;2.25;;;;;;;;;;5094304;28;20057;-78
2022/11/10 14:00:00;;;;;;;2.58;2.38;;;;;;;;;;5094012;28;20498;-79
2022/11/10 14:02:40;;;;;;;2.10;1.83;;;;;;;;;;5075698;28;20077;-78
2022/11/10 14:05:07;;;;;;;1.80;1.45;;;;;;;;;;5093438;28;20426;-79
2022/11/10 14:07:37;;;;;;;1.85;1.75;;;;;;;;;;5093760;28;20041;-79
2022/11/10 14:10:04;;;;;;;3.28;2.38;;;;;;;;;;5093735;28;20032;-79
2022/11/10 14:12:34;;;;;;;2.85;2.63;;;;;;;;;;5093999;28;20034;-78
2022/11/10 14:15:05;;;;;;;2.55;2.33;;;;;;;;;;5093753;28;20445;-78
2022/11/10 14:17:38;;;;;;;4.03;1.88;;;;;;;;;;5093297;28;20031;-79
2022/11/10 14:20:06;;;;;;;2.72;2.03;;;;;;;;;;5093163;28;20132;-79
2022/11/10 14:22:34;;;;;;;3.78;2.17;;;;;;;;;;5093624;28;20085;-79
2022/11/10 14:25:00;;;;;;;2.30;2.10;;;;;;;;;;5093123;28;20035;-79
2022/11/10 14:27:30;;;;;;;1.42;1.33;;;;;;;;;;5093253;28;20036;-78
2022/11/10 14:30:13;;;;;;;2.00;1.83;;;;;;;;;;5093544;28;20035;-79
2022/11/10 14:32:39;;;;;;;2.47;2.28;;;;;;;;;;5075084;28;20038;-79
2022/11/10 14:35:04;;;;;;;1.83;1.67;;;;;;;;;;5092286;28;20116;-78
2022/11/10 14:37:30;;;;;;;2.80;2.60;;;;;;;;;;5074133;28;20170;-78
2022/11/10 14:40:00;;;;;;;2.72;2.40;;;;;;;;;;5092898;28;20031;-78
2022/11/10 14:42:27;;;;;;;2.95;2.75;;;;;;;;;;5093471;28;20067;-79
2022/11/10 14:45:06;;;;;;;2.00;1.80;;;;;;;;;;5093197;28;20032;-79
2022/11/10 14:47:31;;;;;;;1.98;1.77;;;;;;;;;;5092817;28;20035;-79
2022/11/10 14:50:12;;;;;;;2.30;1.92;;;;;;;;;;5093094;28;20032;-78
2022/11/10 14:52:39;;;;;;;2.13;1.88;;;;;;;;;;5094167;28;20036;-78
2022/11/10 14:55:09;;;;;;;2.15;1.95;;;;;;;;;;5094658;28;20039;-78
2022/11/10 14:57:34;;;;;;;2.17;1.98;;;;;;;;;;5093465;28;20020;-78
2022/11/10 15:00:00;;;;;;;2.10;1.83;;;;;;;;;;5094568;28;20066;-79
2022/11/10 15:02:25;;;;;;;1.85;1.67;;;;;;;;;;5092903;28;20035;-78
2022/11/10 15:04:52;;;;;;;1.98;1.77;;;;;;;;;;5094230;28;20083;-78